Time;durP1;ratioP1;P1;durP2;ratioP2;P2;SDS_P1;SDS_P2;PMS_P1;PMS_P2;Temp;Humidity;BMP_temperature;BMP_pressure;BME280_temperature;BME280_humidity;BME280_pressure;Samples;Min_cycle;Max_cycle;Signal;HPM_P1;HPM_P2
2022/10/03 00:00:41;;;;;;;7.40;6.70;;;13.10;99.90;;;;;;5038969;28;20429;-82
2022/10/03 00:03:22;;;;;;;6.70;6.10;;;13.10;99.90;;;;;;5033525;28;20526;-83
2022/10/03 00:06:08;;;;;;;7.97;7.17;;;13.00;99.90;;;;;;5024691;28;20485;-83
2022/10/03 00:09:11;;;;;;;8.73;7.20;;;13.00;99.90;;;;;;5020901;28;20959;-83
2022/10/03 00:11:52;;;;;;;8.30;7.50;;;13.00;99.90;;;;;;5017021;28;20476;-83
2022/10/03 00:14:31;;;;;;;10.03;9.13;;;12.90;99.90;;;;;;5019191;28;20449;-83
2022/10/03 00:17:03;;;;;;;11.53;9.37;;;12.90;99.90;;;;;;5024566;28;20427;-82
2022/10/03 00:19:39;;;;;;;11.30;10.20;;;12.80;99.90;;;;;;5037837;28;20456;-83
2022/10/03 00:22:17;;;;;;;12.10;10.90;;;12.90;99.90;;;;;;5025560;28;20453;-82
2022/10/03 00:24:54;;;;;;;12.03;10.83;;;13.00;99.90;;;;;;5024621;28;20470;-83
2022/10/03 00:27:32;;;;;;;13.27;12.00;;;13.10;99.90;;;;;;5016747;28;20454;-82
2022/10/03 00:30:16;;;;;;;12.93;11.83;;;13.10;99.90;;;;;;5020044;28;20446;-82
2022/10/03 00:33:03;;;;;;;12.30;11.20;;;13.10;99.90;;;;;;5040786;28;20452;-82
2022/10/03 00:35:50;;;;;;;13.27;12.07;;;13.10;99.90;;;;;;5038843;28;20443;-84
2022/10/03 00:38:45;;;;;;;13.50;12.10;;;13.20;99.90;;;;;;5023676;28;20450;-84
2022/10/03 00:41:28;;;;;;;15.50;12.00;;;13.10;99.90;;;;;;5016260;28;20457;-84
2022/10/03 00:44:33;;;;;;;14.07;12.67;;;13.10;99.90;;;;;;5016584;28;20446;-84
2022/10/03 00:47:21;;;;;;;15.53;13.90;;;13.10;99.90;;;;;;5025192;28;20433;-83
2022/10/03 00:50:18;;;;;;;16.00;14.43;;;13.10;99.90;;;;;;5031231;28;20528;-81
2022/10/03 00:52:59;;;;;;;15.80;14.30;;;13.20;99.90;;;;;;5015228;28;20501;-83
2022/10/03 00:55:40;;;;;;;16.23;14.63;;;13.20;99.90;;;;;;5016664;28;21128;-83
2022/10/03 00:58:24;;;;;;;15.70;14.30;;;13.20;99.90;;;;;;5016113;28;20805;-83
2022/10/03 01:00:56;;;;;;;14.60;13.20;;;13.20;99.90;;;;;;5020570;28;20447;-83
2022/10/03 01:03:39;;;;;;;16.50;14.90;;;13.20;99.90;;;;;;5016819;28;20530;-83
2022/10/03 01:06:29;;;;;;;14.70;12.63;;;13.30;99.90;;;;;;5016876;28;20490;-83
2022/10/03 01:09:34;;;;;;;14.43;13.10;;;13.30;99.90;;;;;;5015897;28;20438;-83
2022/10/03 01:12:15;;;;;;;15.27;12.10;;;13.30;99.90;;;;;;4974811;28;20464;-82
2022/10/03 01:15:05;;;;;;;13.93;12.53;;;13.30;99.90;;;;;;5012768;28;20459;-83
2022/10/03 01:17:46;;;;;;;12.50;11.40;;;13.30;99.90;;;;;;5016258;28;20434;-83
2022/10/03 01:20:25;;;;;;;14.50;13.00;;;13.30;99.90;;;;;;5032135;28;20455;-82
2022/10/03 01:23:25;;;;;;;14.40;13.00;;;13.30;99.90;;;;;;5027001;28;20478;-82
2022/10/03 01:26:01;;;;;;;13.97;12.47;;;13.30;99.90;;;;;;5036658;28;20483;-83
2022/10/03 01:31:39;;;;;;;15.13;13.47;;;13.20;99.90;;;;;;5016046;28;20449;-83
2022/10/03 01:34:16;;;;;;;14.80;12.57;;;13.20;99.90;;;;;;5016917;28;20457;-83
2022/10/03 01:36:52;;;;;;;15.20;13.53;;;13.20;99.90;;;;;;5015336;28;20980;-84
2022/10/03 01:39:26;;;;;;;15.90;14.30;;;13.10;99.90;;;;;;5026677;28;20449;-82
2022/10/03 01:41:59;;;;;;;13.90;12.50;;;13.10;99.90;;;;;;5035171;28;20478;-81
2022/10/03 01:44:39;;;;;;;16.93;14.23;;;13.10;99.90;;;;;;5035439;28;20792;-84
2022/10/03 01:47:19;;;;;;;15.93;14.33;;;13.20;99.90;;;;;;5018127;28;20505;-83
2022/10/03 01:49:53;;;;;;;14.73;12.90;;;13.20;99.90;;;;;;5015503;28;20445;-84
2022/10/03 01:52:29;;;;;;;14.73;13.20;;;13.30;99.90;;;;;;5014991;28;20462;-84
2022/10/03 01:55:03;;;;;;;13.40;12.00;;;13.30;99.90;;;;;;5016508;28;20449;-83
2022/10/03 01:57:35;;;;;;;15.63;14.20;;;13.30;99.90;;;;;;5020854;28;20442;-85
2022/10/03 02:00:08;;;;;;;14.43;12.93;;;13.30;99.90;;;;;;5024499;28;20441;-84
2022/10/03 02:02:42;;;;;;;14.63;13.13;;;13.30;99.90;;;;;;5025350;28;20533;-84
2022/10/03 02:05:14;;;;;;;14.87;13.37;;;13.30;99.90;;;;;;5014087;28;20485;-85
2022/10/03 02:07:49;;;;;;;15.10;13.70;;;13.30;99.90;;;;;;5025073;28;20517;-84
2022/10/03 02:10:24;;;;;;;14.10;12.80;;;13.30;99.90;;;;;;5034474;28;20824;-84
2022/10/03 02:13:14;;;;;;;15.23;13.87;;;13.30;99.90;;;;;;5046750;28;20924;-86
2022/10/03 02:15:57;;;;;;;15.97;14.33;;;13.40;99.90;;;;;;5031676;28;20454;-84
2022/10/03 02:18:31;;;;;;;15.20;13.60;;;13.40;99.90;;;;;;5034378;28;20476;-84
2022/10/03 02:21:09;;;;;;;15.80;13.50;;;13.40;99.90;;;;;;5042425;28;20425;-83
2022/10/03 02:23:42;;;;;;;13.70;12.40;;;13.40;99.90;;;;;;5051314;28;20536;-84
2022/10/03 02:26:33;;;;;;;15.00;13.60;;;13.40;99.90;;;;;;5033897;28;20490;-84
2022/10/03 02:29:19;;;;;;;15.20;13.70;;;13.40;99.90;;;;;;5034288;28;20457;-84
2022/10/03 02:32:12;;;;;;;13.93;12.30;;;13.40;99.90;;;;;;5034027;28;20989;-85
2022/10/03 02:35:10;;;;;;;14.17;12.67;;;13.40;99.90;;;;;;5034179;28;20445;-84
2022/10/03 02:38:08;;;;;;;16.47;12.80;;;13.40;99.90;;;;;;5034912;28;20461;-84
2022/10/03 02:41:13;;;;;;;15.17;12.50;;;13.40;99.90;;;;;;5035223;28;20454;-84
2022/10/03 02:44:14;;;;;;;15.27;13.67;;;13.40;99.90;;;;;;5033621;28;20453;-85
2022/10/03 02:47:19;;;;;;;15.90;14.23;;;13.40;99.90;;;;;;5054510;28;20469;-82
2022/10/03 02:50:09;;;;;;;17.23;14.00;;;13.40;99.90;;;;;;5051052;28;20446;-84
2022/10/03 02:53:22;;;;;;;16.77;15.17;;;13.40;99.90;;;;;;5080163;22;20505;-85
2022/10/03 02:56:13;;;;;;;14.70;13.30;;;13.40;99.90;;;;;;5033916;28;20437;-85
2022/10/03 02:59:07;;;;;;;15.77;14.00;;;13.40;99.90;;;;;;5055311;28;20452;-85
2022/10/03 03:02:09;;;;;;;15.87;13.97;;;13.40;99.90;;;;;;5056442;28;20444;-85
2022/10/03 03:05:11;;;;;;;16.80;13.60;;;13.30;99.90;;;;;;5055056;28;20439;-85
2022/10/03 03:08:13;;;;;;;16.17;14.47;;;13.30;99.90;;;;;;5021358;28;20436;-85
2022/10/03 03:11:05;;;;;;;15.80;14.20;;;13.30;99.90;;;;;;5055512;28;20960;-86
2022/10/03 03:14:01;;;;;;;16.67;14.63;;;13.30;99.90;;;;;;5054725;28;20461;-85
2022/10/03 03:16:49;;;;;;;15.43;13.80;;;13.30;99.90;;;;;;5054155;28;20507;-86
2022/10/03 03:19:33;;;;;;;15.30;13.80;;;13.30;99.90;;;;;;5074577;28;20416;-84
2022/10/03 03:22:12;;;;;;;16.37;13.37;;;13.30;99.90;;;;;;5078570;28;20719;-83
2022/10/03 03:24:58;;;;;;;16.53;14.50;;;13.30;99.90;;;;;;5071812;28;20443;-86
2022/10/03 03:27:43;;;;;;;19.00;14.57;;;13.30;99.90;;;;;;5055808;28;20865;-86
2022/10/03 03:30:13;;;;;;;21.17;15.40;;;13.30;99.90;;;;;;5054913;28;20462;-84
2022/10/03 03:32:57;;;;;;;15.37;13.80;;;13.30;99.90;;;;;;5059248;28;20472;-86
2022/10/03 03:35:35;;;;;;;19.63;14.77;;;13.30;99.90;;;;;;5054307;28;20445;-86
2022/10/03 03:38:14;;;;;;;16.70;15.10;;;13.30;99.90;;;;;;5054688;28;20452;-85
2022/10/03 03:40:54;;;;;;;15.17;13.70;;;13.30;99.90;;;;;;5054528;28;20496;-85
2022/10/03 03:43:44;;;;;;;17.00;15.23;;;13.30;99.90;;;;;;5054664;28;21052;-85
2022/10/03 03:46:22;;;;;;;17.03;15.37;;;13.30;99.90;;;;;;5054242;28;20827;-86
2022/10/03 03:49:05;;;;;;;17.43;14.77;;;13.30;99.90;;;;;;5054176;28;20448;-86
2022/10/03 03:51:41;;;;;;;17.23;15.07;;;13.30;99.90;;;;;;5054095;28;20445;-86
2022/10/03 03:54:40;;;;;;;16.73;14.73;;;13.30;99.90;;;;;;5056149;28;20431;-86
2022/10/03 03:57:39;;;;;;;18.00;14.93;;;13.30;99.90;;;;;;5058801;28;20938;-86
2022/10/03 04:00:13;;;;;;;16.53;14.73;;;13.30;99.90;;;;;;5061447;28;20449;-85
2022/10/03 04:02:54;;;;;;;21.00;15.07;;;13.20;99.90;;;;;;5074782;28;20460;-85
2022/10/03 04:05:33;;;;;;;18.43;13.60;;;13.20;99.90;;;;;;5061062;28;20511;-86
2022/10/03 04:08:17;;;;;;;15.13;13.57;;;13.20;99.90;;;;;;5067048;28;20444;-87
2022/10/03 04:10:57;;;;;;;16.17;14.47;;;13.20;99.90;;;;;;5058350;28;20452;-86
2022/10/03 04:13:35;;;;;;;17.20;14.63;;;13.30;99.90;;;;;;5057405;28;20493;-86
2022/10/03 04:19:24;;;;;;;17.30;15.50;;;13.20;99.90;;;;;;5056268;28;20420;-85
2022/10/03 04:22:11;;;;;;;16.67;14.97;;;13.20;99.90;;;;;;5054762;28;20487;-85
2022/10/03 04:25:06;;;;;;;16.63;15.10;;;13.30;99.90;;;;;;5056834;28;20452;-86
2022/10/03 04:27:57;;;;;;;17.10;15.30;;;13.30;99.90;;;;;;5059092;28;20520;-85
2022/10/03 04:30:32;;;;;;;19.83;14.37;;;13.30;99.90;;;;;;5061576;28;20926;-86
2022/10/03 04:33:10;;;;;;;18.23;15.27;;;13.30;99.90;;;;;;5060955;28;20468;-88
2022/10/03 04:36:08;;;;;;;16.10;14.53;;;13.30;99.90;;;;;;5075491;28;20429;-86
2022/10/03 04:38:46;;;;;;;16.83;15.23;;;13.30;99.90;;;;;;5071951;28;20788;-84
2022/10/03 04:41:27;;;;;;;19.53;15.13;;;13.40;99.90;;;;;;5070756;28;20440;-87
2022/10/03 04:44:07;;;;;;;15.80;14.20;;;13.40;99.90;;;;;;5065041;28;20478;-87
2022/10/03 04:46:42;;;;;;;14.80;13.37;;;13.40;99.90;;;;;;5068091;28;20504;-86
2022/10/03 04:49:17;;;;;;;16.37;14.73;;;13.40;99.90;;;;;;5063017;28;20456;-86
2022/10/03 04:51:53;;;;;;;19.30;13.93;;;13.40;99.90;;;;;;5057918;28;20448;-86
2022/10/03 04:54:27;;;;;;;17.60;13.83;;;13.40;99.90;;;;;;5057816;28;20452;-86
2022/10/03 04:57:02;;;;;;;17.80;13.60;;;13.40;99.90;;;;;;5058637;28;20468;-85
2022/10/03 04:59:42;;;;;;;15.43;13.00;;;13.40;99.90;;;;;;5063004;28;20428;-87
2022/10/03 05:02:22;;;;;;;18.67;13.70;;;13.40;99.90;;;;;;5076705;28;20448;-86
2022/10/03 05:05:09;;;;;;;16.07;13.03;;;13.40;99.90;;;;;;5080385;28;20419;-86
2022/10/03 05:07:42;;;;;;;13.30;11.60;;;13.40;99.90;;;;;;5078081;28;20503;-86
2022/10/03 05:10:27;;;;;;;15.00;13.50;;;13.40;99.90;;;;;;5067826;28;20455;-86
2022/10/03 05:13:02;;;;;;;16.13;14.27;;;13.30;99.90;;;;;;5064219;28;20847;-87
2022/10/03 05:15:33;;;;;;;14.77;13.27;;;13.40;99.90;;;;;;5066422;28;20482;-87
2022/10/03 05:18:12;;;;;;;16.93;13.43;;;13.40;99.90;;;;;;5061165;28;20472;-87
2022/10/03 05:20:47;;;;;;;17.10;15.33;;;13.40;99.90;;;;;;5059042;28;20448;-87
2022/10/03 05:23:26;;;;;;;18.00;14.00;;;13.40;99.90;;;;;;5058495;28;20460;-87
2022/10/03 05:26:01;;;;;;;15.37;13.77;;;13.30;99.90;;;;;;5056979;28;20987;-87
2022/10/03 05:28:37;;;;;;;17.57;15.77;;;13.30;99.90;;;;;;5059111;28;20448;-86
2022/10/03 05:31:15;;;;;;;16.93;13.63;;;13.30;99.90;;;;;;5056714;28;20479;-87
2022/10/03 05:33:49;;;;;;;17.57;15.70;;;13.30;99.90;;;;;;5057336;28;20473;-87
2022/10/03 05:36:27;;;;;;;16.20;13.73;;;13.30;99.90;;;;;;5056754;28;20464;-87
2022/10/03 05:39:27;;;;;;;21.50;15.40;;;13.30;99.90;;;;;;5056546;28;20540;-87
2022/10/03 05:41:56;;;;;;;18.53;15.40;;;13.40;99.90;;;;;;5056581;28;20472;-87
2022/10/03 05:44:39;;;;;;;20.63;15.30;;;13.30;99.90;;;;;;5056639;28;20444;-87
2022/10/03 05:47:43;;;;;;;21.80;16.33;;;13.40;99.90;;;;;;5060052;28;20476;-87
2022/10/03 05:50:29;;;;;;;19.37;15.20;;;13.40;99.90;;;;;;5057756;28;20535;-87
2022/10/03 05:53:14;;;;;;;18.03;15.90;;;13.40;99.90;;;;;;5057691;28;20476;-86
2022/10/03 05:55:51;;;;;;;16.77;14.50;;;13.40;99.90;;;;;;5057020;28;20441;-87
2022/10/03 05:58:38;;;;;;;17.17;15.40;;;13.40;99.90;;;;;;5059170;28;20445;-87
2022/10/03 06:01:38;;;;;;;20.53;16.77;;;13.40;99.90;;;;;;5059135;28;20860;-87
2022/10/03 06:04:33;;;;;;;17.80;14.57;;;13.50;99.90;;;;;;5058367;28;20463;-86
2022/10/03 06:07:14;;;;;;;20.23;18.00;;;13.50;99.90;;;;;;5059654;28;20491;-88
2022/10/03 06:10:13;;;;;;;22.53;16.17;;;13.40;99.90;;;;;;5057303;28;20471;-87
2022/10/03 06:12:49;;;;;;;22.80;17.13;;;13.40;99.90;;;;;;5058113;28;20476;-87
2022/10/03 06:15:43;;;;;;;19.47;17.47;;;13.40;99.90;;;;;;5058953;28;20436;-88
2022/10/03 06:18:30;;;;;;;19.60;15.47;;;13.40;99.90;;;;;;5070755;28;20416;-87
2022/10/03 06:21:15;;;;;;;21.00;16.63;;;13.40;99.90;;;;;;5068898;28;20472;-85
2022/10/03 06:24:28;;;;;;;17.60;15.40;;;13.50;99.90;;;;;;5063496;28;20460;-87
2022/10/03 06:27:41;;;;;;;16.60;14.90;;;13.50;99.90;;;;;;5057361;28;20485;-87
2022/10/03 06:30:22;;;;;;;19.63;17.60;;;13.60;99.90;;;;;;5056586;28;20452;-87
2022/10/03 06:33:29;;;;;;;21.70;16.57;;;13.60;99.90;;;;;;5055796;28;20479;-87
2022/10/03 06:36:28;;;;;;;17.50;15.60;;;13.60;99.90;;;;;;5024919;28;20822;-88
2022/10/03 06:39:55;;;;;;;17.37;14.80;;;13.70;99.90;;;;;;5057297;28;20467;-88
2022/10/03 06:42:42;;;;;;;16.37;13.97;;;13.70;99.90;;;;;;5071355;28;20469;-87
2022/10/03 06:45:46;;;;;;;20.83;15.97;;;13.80;99.90;;;;;;5060672;28;20543;-86
2022/10/03 06:48:35;;;;;;;16.47;14.60;;;13.80;99.90;;;;;;5054272;28;20471;-87
2022/10/03 06:51:37;;;;;;;24.93;15.67;;;13.80;99.90;;;;;;5051876;28;20448;-87
2022/10/03 06:54:20;;;;;;;17.63;15.50;;;13.80;99.90;;;;;;5059411;28;20463;-88
2022/10/03 06:57:17;;;;;;;17.77;16.03;;;13.70;99.90;;;;;;5044735;28;20475;-89
2022/10/03 07:00:11;;;;;;;17.83;15.50;;;13.80;99.90;;;;;;5060786;28;20421;-85
2022/10/03 07:03:14;;;;;;;17.23;14.80;;;13.80;99.90;;;;;;5064304;28;20517;-83
2022/10/03 07:06:12;;;;;;;17.37;15.20;;;13.90;99.90;;;;;;5056472;28;20441;-90
2022/10/03 07:09:01;;;;;;;17.67;15.70;;;13.80;99.90;;;;;;5052646;28;20476;-89
2022/10/03 07:11:43;;;;;;;18.80;14.53;;;13.80;99.90;;;;;;5053823;28;20440;-86
2022/10/03 07:14:47;;;;;;;19.03;16.03;;;13.90;99.90;;;;;;5047951;28;20430;-87
2022/10/03 07:17:40;;;;;;;17.07;15.33;;;13.90;99.90;;;;;;5047942;28;20437;-87
2022/10/03 07:20:42;;;;;;;20.20;16.27;;;14.00;99.90;;;;;;5051920;28;20430;-89
2022/10/03 07:23:52;;;;;;;19.60;13.80;;;14.00;99.90;;;;;;5045277;28;20452;-87
2022/10/03 07:26:44;;;;;;;15.93;13.90;;;14.10;99.90;;;;;;5050199;28;20441;-87
2022/10/03 07:29:41;;;;;;;15.20;13.60;;;14.20;99.90;;;;;;5045124;28;20463;-89
2022/10/03 07:32:35;;;;;;;15.43;14.00;;;14.20;99.90;;;;;;5045329;28;20469;-87
2022/10/03 07:38:58;;;;;;;14.57;13.10;;;14.40;99.90;;;;;;5048777;28;20479;-86
2022/10/03 07:41:46;;;;;;;16.27;13.70;;;14.50;99.90;;;;;;5058874;28;20429;-88
2022/10/03 07:44:54;;;;;;;20.80;14.47;;;14.50;99.90;;;;;;5047513;28;20454;-89
2022/10/03 07:48:07;;;;;;;14.27;12.57;;;14.60;99.90;;;;;;4967994;28;20476;-88
2022/10/03 07:50:50;;;;;;;16.20;12.27;;;14.70;99.90;;;;;;5050713;28;20827;-86
2022/10/03 07:53:42;;;;;;;15.70;12.83;;;15.00;99.90;;;;;;5049605;28;20477;-87
2022/10/03 07:56:24;;;;;;;18.67;12.30;;;15.00;99.90;;;;;;5050523;28;20441;-88
2022/10/03 07:59:23;;;;;;;17.23;12.33;;;15.20;99.90;;;;;;5049432;28;20441;-89
2022/10/03 08:02:06;;;;;;;12.03;10.73;;;15.50;99.90;;;;;;5049559;28;20468;-89
2022/10/03 08:05:00;;;;;;;14.93;11.53;;;15.70;99.90;;;;;;5057530;28;20421;-87
2022/10/03 08:07:57;;;;;;;14.97;11.73;;;15.80;99.90;;;;;;5058290;28;20516;-87
2022/10/03 08:11:02;;;;;;;13.00;11.10;;;15.90;99.90;;;;;;5060293;28;20428;-87
2022/10/03 08:13:43;;;;;;;12.53;11.03;;;15.80;99.90;;;;;;5053784;28;20476;-88
2022/10/03 08:16:24;;;;;;;10.93;9.57;;;15.70;99.90;;;;;;5056161;28;20456;-85
2022/10/03 08:19:14;;;;;;;13.20;8.43;;;15.60;99.90;;;;;;5057717;28;20441;-87
2022/10/03 08:21:58;;;;;;;12.87;9.10;;;15.40;99.90;;;;;;5055137;28;20437;-86
2022/10/03 08:24:49;;;;;;;9.77;8.63;;;15.40;99.90;;;;;;5052471;28;20449;-89
2022/10/03 08:27:31;;;;;;;12.13;8.93;;;15.40;99.90;;;;;;5053196;28;20455;-90
2022/10/03 08:30:15;;;;;;;11.07;9.67;;;15.40;99.90;;;;;;5062160;28;20449;-88
2022/10/03 08:32:56;;;;;;;11.97;10.23;;;15.40;99.90;;;;;;5068984;28;20516;-88
2022/10/03 08:36:02;;;;;;;12.60;9.73;;;15.40;99.90;;;;;;5058919;28;20422;-87
2022/10/03 08:42:26;;;;;;;14.00;9.80;;;15.60;99.90;;;;;;5052836;28;20420;-88
2022/10/03 08:45:23;;;;;;;14.30;9.00;;;15.70;99.90;;;;;;5047396;28;20508;-88
2022/10/03 08:48:41;;;;;;;13.83;10.50;;;15.80;99.90;;;;;;5055303;28;20472;-89
2022/10/03 08:51:30;;;;;;;13.80;8.60;;;16.10;99.90;;;;;;5058950;28;20439;-89
2022/10/03 08:54:19;;;;;;;10.90;9.43;;;16.00;99.90;;;;;;5063234;28;20425;-89
2022/10/03 08:57:05;;;;;;;12.83;9.10;;;16.20;99.90;;;;;;5050270;28;20867;-88
2022/10/03 09:00:12;;;;;;;10.60;9.10;;;16.30;99.90;;;;;;5058280;28;20438;-90
2022/10/03 09:03:07;;;;;;;10.70;8.80;;;16.40;99.90;;;;;;5054897;28;20521;-88
2022/10/03 09:06:03;;;;;;;10.50;7.50;;;16.60;99.90;;;;;;5058063;28;20428;-91
2022/10/03 09:08:59;;;;;;;11.07;8.47;;;16.80;99.90;;;;;;5059954;28;20480;-90
2022/10/03 09:11:53;;;;;;;10.20;9.13;;;17.00;99.90;;;;;;5054102;28;20446;-88
2022/10/03 09:14:53;;;;;;;9.60;8.50;;;17.30;99.90;;;;;;5060059;28;20459;-86
2022/10/03 09:17:55;;;;;;;9.67;8.40;;;17.60;99.90;;;;;;5068416;28;20429;-94
2022/10/03 09:21:00;;;;;;;14.30;9.40;;;18.00;99.90;;;;;;5065316;28;20501;-88
2022/10/03 09:23:57;;;;;;;9.97;8.30;;;18.40;99.90;;;;;;5054335;28;20467;-89
2022/10/03 09:26:56;;;;;;;11.90;7.40;;;18.90;99.90;;;;;;5048333;28;20544;-89
2022/10/03 09:30:09;;;;;;;12.40;7.40;;;19.30;99.90;;;;;;5050411;28;20532;-89
2022/10/03 09:33:19;;;;;;;10.23;7.60;;;19.50;99.90;;;;;;5048326;28;20466;-88
2022/10/03 09:35:57;;;;;;;15.23;7.80;;;19.70;99.90;;;;;;5034240;28;20942;-88
2022/10/03 09:38:49;;;;;;;18.80;12.73;;;19.20;99.90;;;;;;5054477;28;20445;-88
2022/10/03 09:42:02;;;;;;;18.30;12.03;;;18.80;99.90;;;;;;5068091;28;20413;-88
2022/10/03 09:44:58;;;;;;;14.53;6.73;;;19.00;99.90;;;;;;5031191;28;20464;-87
2022/10/03 09:48:08;;;;;;;11.33;6.43;;;19.00;99.90;;;;;;5037290;28;20470;-88
2022/10/03 09:51:08;;;;;;;9.80;6.03;;;20.60;99.90;;;;;;5065932;28;20528;-88
2022/10/03 09:54:23;;;;;;;10.67;5.53;;;23.30;93.60;;;;;;5068466;28;20528;-87
2022/10/03 09:57:29;;;;;;;10.60;5.90;;;24.30;89.90;;;;;;5050957;28;20453;-92
2022/10/03 10:00:17;;;;;;;6.33;5.10;;;25.20;81.30;;;;;;5049103;28;20439;-87
2022/10/03 10:03:09;;;;;;;11.17;5.33;;;27.50;76.70;;;;;;5046299;28;20460;-86
2022/10/03 10:06:04;;;;;;;7.13;4.90;;;30.50;64.70;;;;;;5053938;28;20795;-85
2022/10/03 10:08:58;;;;;;;9.13;4.83;;;32.50;56.50;;;;;;5055823;28;20478;-86
2022/10/03 10:11:46;;;;;;;7.17;5.10;;;32.80;52.60;;;;;;5064044;28;20449;-82
2022/10/03 10:14:48;;;;;;;8.93;5.00;;;31.80;51.40;;;;;;5048189;28;20440;-83
2022/10/03 10:18:03;;;;;;;7.23;4.57;;;32.10;50.90;;;;;;5050620;28;20436;-85
2022/10/03 10:21:03;;;;;;;6.80;4.77;;;33.20;49.10;;;;;;5023755;28;20511;-85
2022/10/03 10:23:46;;;;;;;8.37;4.07;;;34.90;45.20;;;;;;5049293;28;20469;-84
2022/10/03 10:26:46;;;;;;;4.90;3.80;;;35.20;42.80;;;;;;5052046;28;20964;-84
2022/10/03 10:29:27;;;;;;;7.43;4.53;;;33.40;42.80;;;;;;5058310;28;20492;-85
2022/10/03 10:32:33;;;;;;;4.87;3.33;;;32.30;45.30;;;;;;5052273;28;20472;-84
2022/10/03 10:35:29;;;;;;;9.30;4.27;;;32.10;44.70;;;;;;5058167;28;20449;-85
2022/10/03 10:38:24;;;;;;;6.00;3.67;;;30.40;45.50;;;;;;5050871;28;20446;-84
2022/10/03 10:41:43;;;;;;;9.83;5.10;;;28.20;48.80;;;;;;5042313;28;20444;-83
2022/10/03 10:44:52;;;;;;;6.90;4.13;;;26.20;54.40;;;;;;5041339;28;20442;-85
2022/10/03 10:47:54;;;;;;;8.97;5.07;;;24.40;59.80;;;;;;5059950;28;20831;-81
2022/10/03 10:50:58;;;;;;;8.70;5.30;;;22.80;64.20;;;;;;5044496;28;20442;-83
2022/10/03 10:54:05;;;;;;;9.07;5.37;;;21.90;70.10;;;;;;5059365;28;20544;-82
2022/10/03 10:57:10;;;;;;;8.27;4.90;;;21.20;73.50;;;;;;5052882;28;20444;-83
2022/10/03 11:00:14;;;;;;;9.63;5.47;;;20.70;75.20;;;;;;5046770;28;20440;-82
2022/10/03 11:03:13;;;;;;;10.83;6.50;;;20.40;77.90;;;;;;5045523;28;20453;-83
2022/10/03 11:06:26;;;;;;;10.27;5.93;;;20.40;81.70;;;;;;5041415;28;20444;-85
2022/10/03 11:09:36;;;;;;;8.97;6.33;;;20.30;84.10;;;;;;5014925;28;20503;-85
2022/10/03 11:12:51;;;;;;;11.20;7.43;;;20.10;86.00;;;;;;5058855;28;20463;-82
2022/10/03 11:16:06;;;;;;;9.10;6.73;;;20.10;88.20;;;;;;5058555;28;20437;-83
2022/10/03 11:19:16;;;;;;;8.70;5.30;;;20.40;87.90;;;;;;5049010;28;20432;-83
2022/10/03 11:22:28;;;;;;;6.77;5.13;;;23.40;82.70;;;;;;5070615;28;20428;-82
2022/10/03 11:25:39;;;;;;;7.63;4.80;;;27.90;68.30;;;;;;5060394;28;20440;-84
2022/10/03 11:28:52;;;;;;;9.30;5.50;;;29.30;56.20;;;;;;5049403;28;20527;-84
2022/10/03 11:31:56;;;;;;;6.50;4.47;;;29.70;56.40;;;;;;5071730;28;20419;-81
2022/10/03 11:35:15;;;;;;;7.30;5.30;;;31.40;52.70;;;;;;5069798;28;20446;-80
2022/10/03 11:37:45;;;;;;;6.87;5.00;;;30.50;50.50;;;;;;5052622;28;20456;-81
2022/10/03 11:40:30;;;;;;;7.43;6.10;;;27.90;53.90;;;;;;5054884;28;20426;-81
2022/10/03 11:43:13;;;;;;;6.43;5.30;;;27.00;56.50;;;;;;5065493;28;20512;-81
2022/10/03 11:45:47;;;;;;;9.43;4.90;;;25.90;57.70;;;;;;5065400;28;20440;-84
2022/10/03 11:48:33;;;;;;;9.40;5.47;;;25.00;59.40;;;;;;5048438;28;20476;-83
2022/10/03 11:51:08;;;;;;;8.03;5.23;;;24.20;60.30;;;;;;5061641;28;20448;-82
2022/10/03 11:53:48;;;;;;;5.40;4.90;;;23.80;62.50;;;;;;5042458;28;20466;-83
2022/10/03 11:56:34;;;;;;;7.40;5.03;;;23.50;63.30;;;;;;5058723;28;20443;-83
2022/10/03 11:59:26;;;;;;;7.90;4.90;;;23.20;64.30;;;;;;5058025;28;20442;-84
2022/10/03 12:02:06;;;;;;;9.83;5.40;;;22.80;64.60;;;;;;5046413;28;20545;-82
2022/10/03 12:04:44;;;;;;;6.17;4.30;;;22.70;64.90;;;;;;5060575;28;20440;-84
2022/10/03 12:10:15;;;;;;;6.77;4.53;;;24.30;59.30;;;;;;5042573;28;20421;-85
2022/10/03 12:12:46;;;;;;;6.67;4.23;;;24.10;58.40;;;;;;5058368;28;20453;-85
2022/10/03 12:15:37;;;;;;;5.23;4.33;;;24.30;59.20;;;;;;5058714;28;20464;-83
2022/10/03 12:18:10;;;;;;;9.70;7.03;;;24.70;58.00;;;;;;5053102;28;20454;-84
2022/10/03 12:21:06;;;;;;;14.03;4.77;;;24.00;60.30;;;;;;5042176;28;20438;-84
2022/10/03 12:23:53;;;;;;;7.33;5.10;;;23.10;61.30;;;;;;5046283;28;20497;-83
2022/10/03 12:26:30;;;;;;;8.23;5.30;;;24.70;61.80;;;;;;5056881;28;20435;-83
2022/10/03 12:28:58;;;;;;;9.03;4.23;;;25.50;58.40;;;;;;5045029;28;20486;-86
2022/10/03 12:31:31;;;;;;;9.97;4.67;;;26.50;58.00;;;;;;5043553;28;20452;-84
2022/10/03 12:34:13;;;;;;;5.97;3.80;;;27.60;55.40;;;;;;5043026;28;20448;-83
2022/10/03 12:36:50;;;;;;;5.93;3.23;;;28.10;53.30;;;;;;5056312;28;20469;-84
2022/10/03 12:39:31;;;;;;;8.00;3.07;;;29.10;51.50;;;;;;5043225;28;20951;-84
2022/10/03 12:42:14;;;;;;;6.20;3.23;;;30.30;49.10;;;;;;5043519;28;20464;-83
2022/10/03 12:44:50;;;;;;;4.70;3.30;;;30.50;47.20;;;;;;5055027;28;20446;-82
2022/10/03 12:47:28;;;;;;;7.53;3.83;;;29.70;47.20;;;;;;5044736;28;20440;-83
2022/10/03 12:50:04;;;;;;;5.07;2.70;;;28.90;47.90;;;;;;5048284;28;20483;-83
2022/10/03 12:52:37;;;;;;;7.40;4.67;;;28.60;49.00;;;;;;5047068;28;20468;-83
2022/10/03 12:55:23;;;;;;;4.57;3.60;;;29.30;49.70;;;;;;5048356;28;20437;-82
2022/10/03 12:57:56;;;;;;;5.43;3.53;;;29.50;48.10;;;;;;5062258;28;20437;-87
2022/10/03 13:00:27;;;;;;;6.30;4.00;;;28.40;48.40;;;;;;5061500;28;20456;-84
2022/10/03 13:03:16;;;;;;;10.10;5.10;;;27.40;50.30;;;;;;5044316;28;20492;-84
2022/10/03 13:05:56;;;;;;;7.13;4.00;;;28.20;51.20;;;;;;5044274;28;20456;-84
2022/10/03 13:08:40;;;;;;;6.77;3.60;;;28.10;49.20;;;;;;5059742;28;20494;-84
2022/10/03 13:11:24;;;;;;;7.20;3.77;;;27.90;49.20;;;;;;5051728;28;20426;-84
2022/10/03 13:14:05;;;;;;;5.40;3.83;;;26.90;49.70;;;;;;5064117;28;20455;-83
2022/10/03 13:16:34;;;;;;;5.40;3.90;;;25.50;52.50;;;;;;5062586;28;20567;-84
2022/10/03 13:19:09;;;;;;;8.47;3.03;;;25.20;54.40;;;;;;5056595;22;20490;-87
2022/10/03 13:21:53;;;;;;;5.67;3.63;;;24.80;54.80;;;;;;5046900;28;20466;-88
2022/10/03 13:24:30;;;;;;;13.10;3.27;;;24.10;55.80;;;;;;5049970;28;20975;-88
2022/10/03 13:27:11;;;;;;;6.27;3.13;;;24.00;56.00;;;;;;5047928;28;20437;-87
2022/10/03 13:29:41;;;;;;;9.70;3.20;;;23.60;55.70;;;;;;5050618;28;20566;-87
2022/10/03 13:32:28;;;;;;;6.00;3.70;;;23.20;56.50;;;;;;5049722;28;20825;-86
2022/10/03 13:38:44;;;;;;;5.60;2.97;;;22.70;57.70;;;;;;5042946;28;20425;-87
2022/10/03 13:41:29;;;;;;;6.27;3.70;;;22.10;58.70;;;;;;5045798;28;20448;-87
2022/10/03 13:44:01;;;;;;;5.90;3.60;;;21.80;60.00;;;;;;5030192;28;20438;-87
2022/10/03 13:46:37;;;;;;;7.27;3.60;;;21.80;60.30;;;;;;5037023;28;20509;-88
2022/10/03 13:49:11;;;;;;;4.80;3.30;;;21.90;60.50;;;;;;5034368;28;20535;-87
2022/10/03 13:51:44;;;;;;;5.73;2.83;;;21.70;59.30;;;;;;5034683;28;20445;-86
2022/10/03 13:54:22;;;;;;;7.17;2.90;;;22.00;59.00;;;;;;5039828;28;20449;-86
2022/10/03 13:56:54;;;;;;;3.67;2.27;;;22.50;58.90;;;;;;5048548;28;20445;-87
2022/10/03 13:59:36;;;;;;;6.80;2.90;;;22.50;58.10;;;;;;5052529;28;20460;-87
2022/10/03 14:02:15;;;;;;;7.30;2.70;;;22.30;58.20;;;;;;5054390;28;20452;-87
2022/10/03 14:04:59;;;;;;;5.73;3.23;;;21.90;58.90;;;;;;5054279;28;20786;-88
2022/10/03 14:07:37;;;;;;;3.50;2.63;;;21.60;58.80;;;;;;5054557;28;20448;-87
2022/10/03 14:10:28;;;;;;;6.73;3.50;;;21.80;59.50;;;;;;5054172;28;20484;-87
2022/10/03 14:13:11;;;;;;;5.57;2.90;;;22.00;58.50;;;;;;5053690;28;20449;-86
2022/10/03 14:15:53;;;;;;;5.50;2.90;;;21.60;57.90;;;;;;5053604;28;20527;-87
2022/10/03 14:18:39;;;;;;;8.27;3.37;;;21.50;59.50;;;;;;5053692;28;20491;-87
2022/10/03 14:21:33;;;;;;;6.27;3.40;;;22.00;60.00;;;;;;5054501;28;20548;-87
2022/10/03 14:24:08;;;;;;;5.67;2.70;;;22.20;58.60;;;;;;5055060;28;20440;-86
2022/10/03 14:26:44;;;;;;;4.43;2.93;;;21.70;57.60;;;;;;5073655;28;20811;-87
2022/10/03 14:29:20;;;;;;;5.37;3.13;;;22.20;58.60;;;;;;5058327;28;20484;-87
2022/10/03 14:31:55;;;;;;;5.57;3.40;;;22.20;57.20;;;;;;5063454;28;20452;-86
2022/10/03 14:34:38;;;;;;;5.80;3.07;;;21.90;57.60;;;;;;5057324;28;20450;-87
2022/10/03 14:37:18;;;;;;;6.03;2.97;;;21.60;56.30;;;;;;5071129;28;20462;-87
2022/10/03 14:39:56;;;;;;;4.87;3.13;;;21.50;58.10;;;;;;5070852;28;20564;-86